sensor_id;sensor_type;location;lat;lon;timestamp;P1;durP1;ratioP1;P2;durP2;ratioP2
81312;SDS011;70780;52.722;5.724;2023-07-29T10:49:44;1.42;;;0.70;;
81312;SDS011;70780;52.722;5.724;2023-07-29T10:52:15;3.45;;;0.93;;
81312;SDS011;70780;52.722;5.724;2023-07-29T10:54:56;2.72;;;0.80;;
81312;SDS011;70780;52.722;5.724;2023-07-29T10:57:30;4.53;;;1.13;;
81312;SDS011;70780;52.722;5.724;2023-07-29T11:00:01;2.58;;;1.00;;
81312;SDS011;70780;52.722;5.724;2023-07-29T11:02:31;2.50;;;1.00;;
81312;SDS011;70780;52.722;5.724;2023-07-29T11:05:07;3.80;;;1.17;;
81312;SDS011;70780;52.722;5.724;2023-07-29T11:07:45;2.00;;;1.02;;
81312;SDS011;70780;52.722;5.724;2023-07-29T11:10:15;3.50;;;0.98;;
81312;SDS011;70780;52.722;5.724;2023-07-29T11:12:45;2.75;;;0.70;;
81312;SDS011;70780;52.722;5.724;2023-07-29T11:15:18;3.22;;;0.90;;
81312;SDS011;70780;52.722;5.724;2023-07-29T11:17:50;2.47;;;0.82;;
81312;SDS011;70780;52.722;5.724;2023-07-29T11:20:23;2.47;;;0.80;;
81312;SDS011;70780;52.722;5.724;2023-07-29T11:22:54;3.50;;;1.20;;
81312;SDS011;70780;52.722;5.724;2023-07-29T11:25:25;4.07;;;1.10;;
81312;SDS011;70780;52.722;5.724;2023-07-29T11:27:58;2.40;;;1.10;;
81312;SDS011;70780;52.722;5.724;2023-07-29T11:30:28;3.50;;;0.93;;
81312;SDS011;70780;52.722;5.724;2023-07-29T11:32:59;2.55;;;1.25;;
81312;SDS011;70780;52.722;5.724;2023-07-29T11:35:31;1.65;;;1.08;;
81312;SDS011;70780;52.722;5.724;2023-07-29T11:38:01;2.25;;;1.15;;
81312;SDS011;70780;52.722;5.724;2023-07-29T11:40:30;3.70;;;1.20;;
81312;SDS011;70780;52.722;5.724;2023-07-29T11:42:59;3.53;;;1.10;;
81312;SDS011;70780;52.722;5.724;2023-07-29T11:45:29;2.65;;;0.85;;
81312;SDS011;70780;52.722;5.724;2023-07-29T11:47:58;2.67;;;0.98;;
81312;SDS011;70780;52.722;5.724;2023-07-29T11:50:32;2.70;;;1.05;;
81312;SDS011;70780;52.722;5.724;2023-07-29T11:53:01;4.72;;;1.05;;
81312;SDS011;70780;52.722;5.724;2023-07-29T11:55:31;3.03;;;0.85;;
81312;SDS011;70780;52.722;5.724;2023-07-29T11:58:02;2.28;;;0.80;;
81312;SDS011;70780;52.722;5.724;2023-07-29T12:00:32;4.32;;;1.05;;
81312;SDS011;70780;52.722;5.724;2023-07-29T12:03:02;2.42;;;1.00;;
81312;SDS011;70780;52.722;5.724;2023-07-29T12:05:34;3.10;;;1.50;;
81312;SDS011;70780;52.722;5.724;2023-07-29T12:08:07;2.15;;;1.00;;
81312;SDS011;70780;52.722;5.724;2023-07-29T12:10:37;2.92;;;1.10;;
81312;SDS011;70780;52.722;5.724;2023-07-29T12:13:07;1.88;;;1.05;;
81312;SDS011;70780;52.722;5.724;2023-07-29T12:15:37;2.40;;;0.80;;
81312;SDS011;70780;52.722;5.724;2023-07-29T12:18:08;2.95;;;1.00;;
81312;SDS011;70780;52.722;5.724;2023-07-29T12:20:40;2.65;;;1.02;;
81312;SDS011;70780;52.722;5.724;2023-07-29T12:23:09;3.50;;;0.85;;
81312;SDS011;70780;52.722;5.724;2023-07-29T12:25:39;2.40;;;1.00;;
81312;SDS011;70780;52.722;5.724;2023-07-29T12:28:08;2.53;;;1.15;;
81312;SDS011;70780;52.722;5.724;2023-07-29T12:30:41;2.25;;;0.90;;
81312;SDS011;70780;52.722;5.724;2023-07-29T12:33:10;2.22;;;0.90;;
81312;SDS011;70780;52.722;5.724;2023-07-29T12:35:45;1.58;;;0.98;;
81312;SDS011;70780;52.722;5.724;2023-07-29T12:38:20;2.65;;;1.00;;
81312;SDS011;70780;52.722;5.724;2023-07-29T12:40:49;1.42;;;0.85;;
81312;SDS011;70780;52.722;5.724;2023-07-29T12:43:19;1.95;;;1.05;;
81312;SDS011;70780;52.722;5.724;2023-07-29T12:45:48;1.80;;;0.70;;
81312;SDS011;70780;52.722;5.724;2023-07-29T12:48:18;2.40;;;1.00;;
81312;SDS011;70780;52.722;5.724;2023-07-29T12:50:50;2.00;;;1.10;;
81312;SDS011;70780;52.722;5.724;2023-07-29T12:53:19;2.85;;;0.70;;
81312;SDS011;70780;52.722;5.724;2023-07-29T12:55:49;2.63;;;0.90;;
81312;SDS011;70780;52.722;5.724;2023-07-29T12:58:18;1.75;;;0.90;;
81312;SDS011;70780;52.722;5.724;2023-07-29T13:00:47;1.23;;;0.70;;
81312;SDS011;70780;52.722;5.724;2023-07-29T13:03:16;2.47;;;0.95;;
81312;SDS011;70780;52.722;5.724;2023-07-29T13:33:59;2.15;;;0.70;;
81312;SDS011;70780;52.722;5.724;2023-07-29T13:36:28;2.33;;;0.60;;
81312;SDS011;70780;52.722;5.724;2023-07-29T13:38:57;4.97;;;0.70;;
81312;SDS011;70780;52.722;5.724;2023-07-29T13:41:27;2.97;;;0.75;;
81312;SDS011;70780;52.722;5.724;2023-07-29T13:43:56;1.73;;;0.88;;
81312;SDS011;70780;52.722;5.724;2023-07-29T13:46:25;2.67;;;0.70;;
81312;SDS011;70780;52.722;5.724;2023-07-29T13:48:54;2.25;;;1.23;;
81312;SDS011;70780;52.722;5.724;2023-07-29T13:51:26;1.95;;;0.93;;
81312;SDS011;70780;52.722;5.724;2023-07-29T13:53:56;2.67;;;0.60;;
81312;SDS011;70780;52.722;5.724;2023-07-29T13:56:25;1.10;;;0.60;;
81312;SDS011;70780;52.722;5.724;2023-07-29T13:58:54;1.55;;;0.60;;
81312;SDS011;70780;52.722;5.724;2023-07-29T14:01:23;1.42;;;0.57;;
81312;SDS011;70780;52.722;5.724;2023-07-29T14:03:53;1.95;;;0.75;;
81312;SDS011;70780;52.722;5.724;2023-07-29T14:06:22;2.28;;;0.80;;
81312;SDS011;70780;52.722;5.724;2023-07-29T22:32:28;4.97;;;1.67;;
81312;SDS011;70780;52.722;5.724;2023-07-29T22:34:57;3.08;;;1.23;;
81312;SDS011;70780;52.722;5.724;2023-07-29T22:37:26;7.57;;;1.30;;
81312;SDS011;70780;52.722;5.724;2023-07-29T22:39:56;3.00;;;1.38;;
81312;SDS011;70780;52.722;5.724;2023-07-29T22:42:25;4.35;;;1.48;;
81312;SDS011;70780;52.722;5.724;2023-07-29T22:44:55;2.85;;;1.40;;
81312;SDS011;70780;52.722;5.724;2023-07-29T22:47:25;4.47;;;1.40;;
81312;SDS011;70780;52.722;5.724;2023-07-29T22:49:57;3.75;;;1.50;;
81312;SDS011;70780;52.722;5.724;2023-07-29T22:52:26;4.55;;;1.70;;
81312;SDS011;70780;52.722;5.724;2023-07-29T22:54:55;3.15;;;1.17;;
81312;SDS011;70780;52.722;5.724;2023-07-29T22:57:24;3.13;;;1.55;;
81312;SDS011;70780;52.722;5.724;2023-07-29T22:59:54;3.40;;;1.40;;
81312;SDS011;70780;52.722;5.724;2023-07-29T23:02:23;5.43;;;1.70;;
81312;SDS011;70780;52.722;5.724;2023-07-29T23:04:55;2.63;;;1.48;;
81312;SDS011;70780;52.722;5.724;2023-07-29T23:07:25;3.58;;;1.20;;
81312;SDS011;70780;52.722;5.724;2023-07-29T23:09:54;6.63;;;1.55;;
81312;SDS011;70780;52.722;5.724;2023-07-29T23:12:24;4.13;;;1.50;;
81312;SDS011;70780;52.722;5.724;2023-07-29T23:14:53;2.70;;;1.33;;
81312;SDS011;70780;52.722;5.724;2023-07-29T23:17:22;11.88;;;2.60;;
81312;SDS011;70780;52.722;5.724;2023-07-29T23:19:51;11.18;;;2.35;;
81312;SDS011;70780;52.722;5.724;2023-07-29T23:22:23;12.10;;;2.28;;
81312;SDS011;70780;52.722;5.724;2023-07-29T23:24:53;19.20;;;7.22;;
81312;SDS011;70780;52.722;5.724;2023-07-29T23:27:22;13.45;;;2.85;;
81312;SDS011;70780;52.722;5.724;2023-07-29T23:29:51;28.90;;;17.05;;
81312;SDS011;70780;52.722;5.724;2023-07-29T23:32:21;16.55;;;4.90;;
81312;SDS011;70780;52.722;5.724;2023-07-29T23:34:51;78.55;;;47.78;;
81312;SDS011;70780;52.722;5.724;2023-07-29T23:37:23;77.60;;;47.55;;
81312;SDS011;70780;52.722;5.724;2023-07-29T23:39:52;61.75;;;40.15;;
81312;SDS011;70780;52.722;5.724;2023-07-29T23:42:21;52.65;;;33.50;;
81312;SDS011;70780;52.722;5.724;2023-07-29T23:44:51;50.75;;;31.23;;
81312;SDS011;70780;52.722;5.724;2023-07-29T23:47:20;43.20;;;26.13;;
81312;SDS011;70780;52.722;5.724;2023-07-29T23:49:49;36.28;;;23.55;;
81312;SDS011;70780;52.722;5.724;2023-07-29T23:52:19;37.25;;;22.20;;
81312;SDS011;70780;52.722;5.724;2023-07-29T23:54:51;35.20;;;23.30;;
81312;SDS011;70780;52.722;5.724;2023-07-29T23:57:20;33.33;;;21.35;;
81312;SDS011;70780;52.722;5.724;2023-07-29T23:59:49;31.98;;;20.83;;
